createdAt,value
2023-01-08T00:00:08.017Z,3.67
2023-01-08T00:05:29.278Z,3.80
2023-01-08T00:10:48.524Z,3.40
2023-01-08T00:15:56.695Z,4.40
2023-01-08T00:21:06.428Z,3.93
2023-01-08T00:26:13.985Z,4.20
2023-01-08T00:31:30.259Z,3.60
2023-01-08T00:36:43.190Z,3.60
2023-01-08T00:41:52.714Z,3.37
2023-01-08T00:47:01.236Z,3.43
2023-01-08T00:52:21.573Z,3.60
2023-01-08T00:57:42.384Z,3.50
2023-01-08T01:02:48.483Z,3.47
2023-01-08T01:08:09.098Z,3.33
2023-01-08T01:13:36.362Z,3.50
2023-01-08T01:18:52.761Z,3.27
2023-01-08T01:23:59.289Z,3.70
2023-01-08T01:29:09.244Z,3.20
2023-01-08T01:34:13.116Z,3.37
2023-01-08T01:39:17.673Z,3.27
2023-01-08T01:44:43.067Z,3.20
2023-01-08T01:49:58.513Z,3.20
2023-01-08T01:55:07.190Z,3.17
2023-01-08T02:00:18.613Z,3.50
2023-01-08T02:05:25.777Z,3.40
2023-01-08T02:10:39.896Z,3.53
2023-01-08T02:21:24.762Z,3.87
2023-01-08T02:26:49.094Z,3.23
2023-01-08T02:32:03.656Z,2.73
2023-01-08T02:37:16.894Z,3.13
2023-01-08T02:42:34.491Z,3.13
2023-01-08T02:47:43.643Z,4.10
2023-01-08T02:53:03.587Z,3.07
2023-01-08T02:58:20.324Z,3.03
2023-01-08T03:03:33.624Z,2.90
2023-01-08T03:08:43.255Z,3.17
2023-01-08T03:13:59.473Z,2.67
2023-01-08T03:19:16.963Z,2.70
2023-01-08T03:24:30.934Z,2.80
2023-01-08T03:29:42.611Z,2.70
2023-01-08T03:34:54.459Z,2.63
2023-01-08T03:40:05.327Z,2.33
2023-01-08T03:45:17.398Z,2.03
2023-01-08T03:50:28.644Z,2.73
2023-01-08T03:55:35.087Z,2.10
2023-01-08T04:00:43.876Z,2.20
2023-01-08T04:05:54.930Z,2.10
2023-01-08T04:11:00.624Z,1.90
2023-01-08T04:16:23.786Z,2.13
2023-01-08T04:21:34.375Z,2.20
2023-01-08T04:26:44.103Z,2.13
2023-01-08T04:37:11.785Z,2.20
2023-01-08T04:42:31.809Z,2.33
2023-01-08T04:47:49.596Z,2.20
2023-01-08T05:03:45.356Z,2.13
2023-01-08T05:08:51.839Z,2.07
2023-01-08T05:14:10.521Z,2.17
2023-01-08T05:19:22.641Z,2.20
2023-01-08T05:24:34.114Z,1.97
2023-01-08T05:29:43.402Z,1.73
2023-01-08T05:34:51.172Z,1.90
2023-01-08T05:40:00.718Z,1.83
2023-01-08T05:45:10.941Z,1.77
2023-01-08T05:50:32.818Z,2.13
2023-01-08T05:55:46.753Z,1.83
2023-01-08T06:00:55.304Z,1.90
2023-01-08T06:06:07.636Z,1.93
2023-01-08T06:11:16.664Z,1.97
2023-01-08T06:16:22.838Z,2.10
2023-01-08T06:21:36.222Z,2.00
2023-01-08T06:26:45.432Z,2.20
2023-01-08T06:31:50.673Z,2.00
2023-01-08T06:37:00.952Z,2.00
2023-01-08T06:42:05.039Z,1.87
2023-01-08T06:47:12.541Z,2.33
2023-01-08T06:52:21.597Z,2.27
2023-01-08T06:57:32.550Z,2.50
2023-01-08T07:02:37.860Z,2.37
2023-01-08T07:07:43.443Z,2.50
2023-01-08T07:12:53.857Z,2.23
2023-01-08T07:18:01.085Z,2.90
2023-01-08T07:23:08.816Z,2.23
2023-01-08T07:28:15.274Z,2.47
2023-01-08T07:33:21.306Z,2.40
2023-01-08T07:38:29.752Z,2.47
2023-01-08T07:43:35.681Z,2.10
2023-01-08T07:48:40.025Z,2.40
2023-01-08T07:53:52.425Z,2.50
2023-01-08T07:58:59.721Z,2.33
2023-01-08T08:04:04.047Z,2.70
2023-01-08T08:09:14.783Z,2.67
2023-01-08T08:14:27.899Z,2.70
2023-01-08T08:19:32.027Z,2.30
2023-01-08T08:24:39.454Z,2.70
2023-01-08T08:29:47.653Z,2.60
2023-01-08T08:34:54.254Z,2.30
2023-01-08T08:40:03.706Z,2.50
2023-01-08T08:45:19.243Z,2.43
2023-01-08T08:50:26.474Z,2.57
2023-01-08T09:01:18.241Z,4.07
2023-01-08T09:06:29.243Z,2.70
2023-01-08T09:11:42.649Z,2.87
2023-01-08T09:16:49.629Z,2.70
2023-01-08T09:21:57.146Z,2.43
2023-01-08T09:27:03.746Z,2.93
2023-01-08T09:32:08.967Z,3.00
2023-01-08T09:37:33.291Z,3.80
2023-01-08T09:42:45.633Z,2.90
2023-01-08T09:47:55.651Z,3.00
2023-01-08T09:53:01.676Z,2.93
2023-01-08T09:58:15.956Z,2.83
2023-01-08T10:03:21.864Z,2.97
2023-01-08T10:08:47.532Z,2.90
2023-01-08T10:13:59.442Z,3.07
2023-01-08T10:19:06.551Z,2.93
2023-01-08T10:24:20.910Z,2.93
2023-01-08T10:29:28.331Z,3.00
2023-01-08T10:34:42.024Z,2.83
2023-01-08T10:39:51.873Z,3.17
2023-01-08T10:45:21.687Z,3.37
2023-01-08T10:50:28.674Z,2.90
2023-01-08T10:55:39.857Z,2.90
2023-01-08T11:00:49.718Z,2.83
2023-01-08T11:05:54.177Z,3.03
2023-01-08T11:11:04.254Z,3.10
2023-01-08T11:16:18.268Z,2.90
2023-01-08T11:21:25.100Z,3.70
2023-01-08T11:26:33.551Z,3.33
2023-01-08T11:31:47.081Z,3.53
2023-01-08T11:36:59.417Z,3.70
2023-01-08T11:42:27.587Z,3.73
2023-01-08T11:47:56.355Z,3.80
2023-01-08T11:53:23.630Z,4.00
2023-01-08T11:58:43.791Z,4.30
2023-01-08T12:04:04.530Z,3.53
2023-01-08T12:09:31.079Z,4.03
2023-01-08T12:15:01.684Z,3.80
2023-01-08T12:20:35.456Z,3.90
2023-01-08T12:25:55.257Z,3.47
2023-01-08T12:31:23.255Z,3.53
2023-01-08T12:36:35.803Z,3.70
2023-01-08T12:41:46.968Z,3.17
2023-01-08T12:46:56.431Z,3.13
2023-01-08T12:52:10.631Z,3.37
2023-01-08T12:57:33.279Z,2.90
2023-01-08T13:03:02.144Z,2.93
2023-01-08T13:08:35.213Z,2.80
2023-01-08T13:13:54.311Z,3.03
2023-01-08T13:19:06.026Z,3.10
2023-01-08T13:24:34.372Z,3.23
2023-01-08T13:29:43.664Z,2.70
2023-01-08T13:34:50.169Z,2.50
2023-01-08T13:40:00.888Z,2.83
2023-01-08T13:45:20.063Z,2.40
2023-01-08T13:50:34.276Z,2.00
2023-01-08T13:55:47.638Z,2.03
2023-01-08T14:00:55.327Z,1.80
2023-01-08T14:06:26.065Z,1.80
2023-01-08T14:11:46.776Z,2.13
2023-01-08T14:16:52.905Z,2.60
2023-01-08T14:22:03.903Z,1.67
2023-01-08T14:27:23.848Z,1.97
2023-01-08T14:32:30.077Z,1.80
2023-01-08T14:37:50.916Z,1.80
2023-01-08T14:43:12.677Z,1.60
2023-01-08T14:48:24.809Z,1.60
2023-01-08T14:53:37.842Z,1.60
2023-01-08T14:58:49.056Z,1.60
2023-01-08T15:04:06.702Z,2.00
2023-01-08T15:09:23.694Z,1.47
2023-01-08T15:14:38.572Z,1.70
2023-01-08T15:19:43.920Z,1.50
2023-01-08T15:25:00.037Z,1.63
2023-01-08T15:30:09.963Z,1.40
2023-01-08T15:35:16.239Z,1.70
2023-01-08T15:40:23.653Z,1.50
2023-01-08T15:45:34.704Z,1.70
2023-01-08T15:50:49.666Z,1.63
2023-01-08T15:55:54.851Z,1.73
2023-01-08T16:01:03.599Z,1.73
2023-01-08T16:06:08.016Z,1.77
2023-01-08T16:11:12.033Z,1.83
2023-01-08T16:16:18.583Z,1.80
2023-01-08T16:21:23.202Z,1.90
2023-01-08T16:26:27.679Z,1.70
2023-01-08T16:31:33.692Z,1.80
2023-01-08T16:36:39.086Z,1.70
2023-01-08T16:41:43.729Z,1.97
2023-01-08T16:47:01.708Z,2.33
2023-01-08T16:52:07.367Z,1.90
2023-01-08T16:57:12.707Z,2.00
2023-01-08T17:02:21.854Z,1.90
2023-01-08T17:07:42.804Z,1.67
2023-01-08T17:12:50.818Z,1.70
2023-01-08T17:17:58.728Z,1.90
2023-01-08T17:23:02.895Z,2.50
2023-01-08T17:28:07.429Z,1.80
2023-01-08T17:33:18.370Z,2.30
2023-01-08T17:38:23.193Z,2.00
2023-01-08T17:43:27.036Z,1.40
2023-01-08T17:48:34.331Z,1.80
2023-01-08T17:53:42.755Z,1.60
2023-01-08T17:58:46.284Z,2.07
2023-01-08T18:03:52.389Z,1.50
2023-01-08T18:08:57.794Z,1.60
2023-01-08T18:14:03.477Z,1.60
2023-01-08T18:19:23.658Z,1.77
2023-01-08T18:24:28.489Z,1.33
2023-01-08T18:29:33.386Z,1.47
2023-01-08T18:34:51.984Z,1.50
2023-01-08T18:39:58.252Z,1.43
2023-01-08T18:45:03.219Z,1.57
2023-01-08T18:50:13.608Z,1.40
2023-01-08T18:55:17.728Z,1.30
2023-01-08T19:00:25.794Z,1.43
2023-01-08T19:05:31.615Z,1.90
2023-01-08T19:10:37.923Z,1.70
2023-01-08T19:15:48.854Z,1.97
2023-01-08T19:20:57.580Z,1.90
2023-01-08T19:26:16.168Z,1.70
2023-01-08T19:31:22.292Z,1.90
2023-01-08T19:36:28.862Z,1.90
2023-01-08T19:41:51.585Z,1.97
2023-01-08T19:46:56.012Z,2.20
2023-01-08T19:52:17.919Z,2.20
2023-01-08T19:57:25.111Z,2.30
2023-01-08T20:02:46.071Z,2.67
2023-01-08T20:08:07.159Z,2.70
2023-01-08T20:13:24.449Z,2.27
2023-01-08T20:18:31.884Z,5.27
2023-01-08T20:23:38.802Z,2.17
2023-01-08T20:28:49.366Z,2.80
2023-01-08T20:33:56.806Z,2.70
2023-01-08T20:39:09.716Z,2.10
2023-01-08T20:44:15.050Z,2.77
2023-01-08T20:49:21.139Z,2.67
2023-01-08T20:54:28.890Z,2.67
2023-01-08T20:59:34.848Z,2.77
2023-01-08T21:04:41.702Z,2.40
2023-01-08T21:09:56.583Z,2.37
2023-01-08T21:15:01.417Z,2.50
2023-01-08T21:20:13.967Z,2.83
2023-01-08T21:25:24.990Z,2.70
2023-01-08T21:30:29.921Z,2.50
2023-01-08T21:35:40.274Z,2.80
2023-01-08T21:40:47.847Z,3.00
2023-01-08T21:45:57.917Z,2.60
2023-01-08T21:51:03.438Z,2.90
2023-01-08T21:56:09.546Z,2.60
2023-01-08T22:01:19.408Z,2.60
2023-01-08T22:06:24.169Z,2.80
2023-01-08T22:11:29.789Z,3.03
2023-01-08T22:16:36.543Z,2.83
2023-01-08T22:21:40.578Z,3.07
2023-01-08T22:26:51.387Z,2.90
2023-01-08T22:32:00.641Z,2.90
2023-01-08T22:37:10.791Z,3.10
2023-01-08T22:43:00.083Z,3.00
2023-01-08T22:48:11.944Z,2.93
2023-01-08T22:53:20.054Z,3.00
2023-01-08T22:58:34.105Z,2.87
2023-01-08T23:03:46.373Z,3.40
2023-01-08T23:08:53.538Z,3.57
2023-01-08T23:14:04.110Z,3.37
2023-01-08T23:19:10.669Z,3.17
2023-01-08T23:24:18.320Z,3.00
2023-01-08T23:29:30.677Z,3.50
2023-01-08T23:34:36.828Z,3.17
2023-01-08T23:39:42.399Z,3.77
2023-01-08T23:44:56.056Z,3.33
2023-01-08T23:50:03.089Z,3.60
2023-01-08T23:55:10.114Z,3.50
